Terminal Aerodrome Forecast
Issued by NWS Bismarck, ND

Home | Current Version | Previous Version | Text Only | Print | Product List | Glossary Off
Versions: 1 2 3 4 5 6 7 8 9 10 11 12 13 14 15 16 17 18

269
FTUS43 KBIS 270524
TAFISN
TAF
KISN 270524Z 2706/2806 27008KT P6SM FEW050 SCT100
     FM271000 26008KT P6SM VCSH BKN060 BKN100
     FM271300 28008KT P6SM FEW050
     FM271700 30015G23KT P6SM FEW060 SCT200
     FM271900 31018G27KT P6SM VCSH SCT080 BKN100
     FM280200 32009KT P6SM FEW080 FEW200=

USA.gov is the U.S. government's official web portal to all federal, state and local government web resources and services.